sensor_id;sensor_type;location;lat;lon;timestamp;temperature;humidity
52034;DHT22;38045;52.988;6.536;2023-06-10T00:01:36;18.10;99.90
52034;DHT22;38045;52.988;6.536;2023-06-10T00:04:02;18.10;99.90
52034;DHT22;38045;52.988;6.536;2023-06-10T00:06:28;18.00;99.90
52034;DHT22;38045;52.988;6.536;2023-06-10T00:08:54;18.00;99.90
52034;DHT22;38045;52.988;6.536;2023-06-10T00:11:21;18.00;99.90
52034;DHT22;38045;52.988;6.536;2023-06-10T00:13:47;17.90;99.90
52034;DHT22;38045;52.988;6.536;2023-06-10T00:16:12;17.90;99.90
52034;DHT22;38045;52.988;6.536;2023-06-10T00:18:38;17.90;99.90
52034;DHT22;38045;52.988;6.536;2023-06-10T00:21:04;17.90;99.90
52034;DHT22;38045;52.988;6.536;2023-06-10T00:23:33;17.80;99.90
52034;DHT22;38045;52.988;6.536;2023-06-10T00:26:03;17.80;99.90
52034;DHT22;38045;52.988;6.536;2023-06-10T00:28:28;17.80;99.90
52034;DHT22;38045;52.988;6.536;2023-06-10T00:30:54;17.70;99.90
52034;DHT22;38045;52.988;6.536;2023-06-10T00:33:19;17.70;99.90
52034;DHT22;38045;52.988;6.536;2023-06-10T00:35:46;17.70;99.90
52034;DHT22;38045;52.988;6.536;2023-06-10T00:38:13;17.60;99.90
52034;DHT22;38045;52.988;6.536;2023-06-10T00:40:40;17.60;99.90
52034;DHT22;38045;52.988;6.536;2023-06-10T00:43:06;17.60;99.90
52034;DHT22;38045;52.988;6.536;2023-06-10T00:45:32;17.50;99.90
52034;DHT22;38045;52.988;6.536;2023-06-10T00:47:59;17.50;99.90
52034;DHT22;38045;52.988;6.536;2023-06-10T00:50:25;17.50;99.90
52034;DHT22;38045;52.988;6.536;2023-06-10T00:52:51;17.50;99.90
52034;DHT22;38045;52.988;6.536;2023-06-10T00:55:17;17.40;99.90
52034;DHT22;38045;52.988;6.536;2023-06-10T00:57:45;17.40;99.90
52034;DHT22;38045;52.988;6.536;2023-06-10T01:00:12;17.40;99.90
52034;DHT22;38045;52.988;6.536;2023-06-10T01:02:38;17.30;99.90
52034;DHT22;38045;52.988;6.536;2023-06-10T01:05:04;17.20;99.90
52034;DHT22;38045;52.988;6.536;2023-06-10T01:08:00;17.30;99.90
52034;DHT22;38045;52.988;6.536;2023-06-10T01:10:43;17.20;99.90
52034;DHT22;38045;52.988;6.536;2023-06-10T01:13:13;17.20;99.90
52034;DHT22;38045;52.988;6.536;2023-06-10T01:15:39;17.20;99.90
52034;DHT22;38045;52.988;6.536;2023-06-10T01:18:07;17.20;99.90
52034;DHT22;38045;52.988;6.536;2023-06-10T01:20:36;17.10;99.90
52034;DHT22;38045;52.988;6.536;2023-06-10T01:23:05;17.10;99.90
52034;DHT22;38045;52.988;6.536;2023-06-10T01:25:32;17.10;99.90
52034;DHT22;38045;52.988;6.536;2023-06-10T01:28:18;17.10;99.90
52034;DHT22;38045;52.988;6.536;2023-06-10T01:33:51;17.00;99.90
52034;DHT22;38045;52.988;6.536;2023-06-10T01:36:18;17.00;99.90
52034;DHT22;38045;52.988;6.536;2023-06-10T01:38:46;17.00;99.90
52034;DHT22;38045;52.988;6.536;2023-06-10T01:41:14;16.90;99.90
52034;DHT22;38045;52.988;6.536;2023-06-10T01:43:43;16.80;99.90
52034;DHT22;38045;52.988;6.536;2023-06-10T01:46:09;16.80;99.90
52034;DHT22;38045;52.988;6.536;2023-06-10T01:48:35;16.80;99.90
52034;DHT22;38045;52.988;6.536;2023-06-10T01:51:00;16.80;99.90
52034;DHT22;38045;52.988;6.536;2023-06-10T01:53:26;16.80;99.90
52034;DHT22;38045;52.988;6.536;2023-06-10T01:55:52;16.70;99.90
52034;DHT22;38045;52.988;6.536;2023-06-10T01:58:17;16.70;99.90
52034;DHT22;38045;52.988;6.536;2023-06-10T02:00:43;16.70;99.90
52034;DHT22;38045;52.988;6.536;2023-06-10T02:03:08;16.60;99.90
52034;DHT22;38045;52.988;6.536;2023-06-10T02:05:34;16.60;99.90
52034;DHT22;38045;52.988;6.536;2023-06-10T02:08:00;16.50;99.90
52034;DHT22;38045;52.988;6.536;2023-06-10T02:10:26;16.50;99.90
52034;DHT22;38045;52.988;6.536;2023-06-10T02:12:51;16.40;99.90
52034;DHT22;38045;52.988;6.536;2023-06-10T02:15:17;16.30;99.90
52034;DHT22;38045;52.988;6.536;2023-06-10T02:17:43;16.30;99.90
52034;DHT22;38045;52.988;6.536;2023-06-10T02:20:10;16.20;99.90
52034;DHT22;38045;52.988;6.536;2023-06-10T02:22:37;16.30;99.90
52034;DHT22;38045;52.988;6.536;2023-06-10T02:25:04;16.20;99.90
52034;DHT22;38045;52.988;6.536;2023-06-10T02:27:30;16.20;99.90
52034;DHT22;38045;52.988;6.536;2023-06-10T02:29:59;16.10;99.90
52034;DHT22;38045;52.988;6.536;2023-06-10T02:32:25;16.10;99.90
52034;DHT22;38045;52.988;6.536;2023-06-10T02:34:51;16.10;99.90
52034;DHT22;38045;52.988;6.536;2023-06-10T02:37:17;16.00;99.90
52034;DHT22;38045;52.988;6.536;2023-06-10T02:39:42;16.00;99.90
52034;DHT22;38045;52.988;6.536;2023-06-10T02:42:08;16.00;99.90
52034;DHT22;38045;52.988;6.536;2023-06-10T02:44:34;15.90;99.90
52034;DHT22;38045;52.988;6.536;2023-06-10T02:46:59;15.80;99.90
52034;DHT22;38045;52.988;6.536;2023-06-10T02:49:25;15.80;99.90
52034;DHT22;38045;52.988;6.536;2023-06-10T02:51:54;15.80;99.90
52034;DHT22;38045;52.988;6.536;2023-06-10T02:54:20;15.70;99.90
52034;DHT22;38045;52.988;6.536;2023-06-10T02:56:46;15.70;99.90
52034;DHT22;38045;52.988;6.536;2023-06-10T02:59:13;15.60;99.90
52034;DHT22;38045;52.988;6.536;2023-06-10T03:01:39;15.50;99.90
52034;DHT22;38045;52.988;6.536;2023-06-10T03:04:06;15.50;99.90
52034;DHT22;38045;52.988;6.536;2023-06-10T03:06:32;15.40;99.90
52034;DHT22;38045;52.988;6.536;2023-06-10T03:09:01;15.40;99.90
52034;DHT22;38045;52.988;6.536;2023-06-10T03:11:29;15.40;99.90
52034;DHT22;38045;52.988;6.536;2023-06-10T03:13:57;15.40;99.90
52034;DHT22;38045;52.988;6.536;2023-06-10T03:16:22;15.40;99.90
52034;DHT22;38045;52.988;6.536;2023-06-10T03:18:50;15.30;99.90
52034;DHT22;38045;52.988;6.536;2023-06-10T03:21:16;15.30;99.90
52034;DHT22;38045;52.988;6.536;2023-06-10T03:23:41;15.30;99.90
52034;DHT22;38045;52.988;6.536;2023-06-10T03:26:07;15.20;99.90
52034;DHT22;38045;52.988;6.536;2023-06-10T03:28:33;15.20;99.90
52034;DHT22;38045;52.988;6.536;2023-06-10T03:30:58;15.20;99.90
52034;DHT22;38045;52.988;6.536;2023-06-10T03:33:24;15.10;99.90
52034;DHT22;38045;52.988;6.536;2023-06-10T03:35:50;15.10;99.90
52034;DHT22;38045;52.988;6.536;2023-06-10T03:38:16;15.00;99.90
52034;DHT22;38045;52.988;6.536;2023-06-10T03:40:42;15.10;99.90
52034;DHT22;38045;52.988;6.536;2023-06-10T03:43:07;15.10;99.90
52034;DHT22;38045;52.988;6.536;2023-06-10T03:45:33;15.10;99.90
52034;DHT22;38045;52.988;6.536;2023-06-10T03:47:58;15.10;99.90
52034;DHT22;38045;52.988;6.536;2023-06-10T03:50:24;15.10;99.90
52034;DHT22;38045;52.988;6.536;2023-06-10T03:52:51;15.10;99.90
52034;DHT22;38045;52.988;6.536;2023-06-10T03:55:17;15.10;99.90
52034;DHT22;38045;52.988;6.536;2023-06-10T03:57:43;15.10;99.90
52034;DHT22;38045;52.988;6.536;2023-06-10T04:00:09;15.00;99.90
52034;DHT22;38045;52.988;6.536;2023-06-10T04:02:38;15.10;99.90
52034;DHT22;38045;52.988;6.536;2023-06-10T04:05:14;15.10;99.90
52034;DHT22;38045;52.988;6.536;2023-06-10T04:07:40;15.10;99.90
52034;DHT22;38045;52.988;6.536;2023-06-10T04:10:08;15.10;99.90
52034;DHT22;38045;52.988;6.536;2023-06-10T04:12:34;15.10;99.90
52034;DHT22;38045;52.988;6.536;2023-06-10T04:15:00;15.10;99.90
52034;DHT22;38045;52.988;6.536;2023-06-10T04:17:26;15.20;99.90
52034;DHT22;38045;52.988;6.536;2023-06-10T04:19:52;15.20;99.90
52034;DHT22;38045;52.988;6.536;2023-06-10T04:22:18;15.20;99.90
52034;DHT22;38045;52.988;6.536;2023-06-10T04:24:44;15.20;99.90
52034;DHT22;38045;52.988;6.536;2023-06-10T04:27:10;15.20;99.90
52034;DHT22;38045;52.988;6.536;2023-06-10T04:29:36;15.20;99.90
52034;DHT22;38045;52.988;6.536;2023-06-10T04:32:02;15.20;99.90
52034;DHT22;38045;52.988;6.536;2023-06-10T04:34:28;15.30;99.90
52034;DHT22;38045;52.988;6.536;2023-06-10T04:36:54;15.30;99.90
52034;DHT22;38045;52.988;6.536;2023-06-10T04:39:19;15.40;99.90
52034;DHT22;38045;52.988;6.536;2023-06-10T04:41:46;15.30;99.90
52034;DHT22;38045;52.988;6.536;2023-06-10T04:44:12;15.30;99.90
52034;DHT22;38045;52.988;6.536;2023-06-10T04:46:37;15.40;99.90
52034;DHT22;38045;52.988;6.536;2023-06-10T04:49:03;15.40;99.90
52034;DHT22;38045;52.988;6.536;2023-06-10T04:51:30;15.50;99.90
52034;DHT22;38045;52.988;6.536;2023-06-10T04:53:57;15.60;99.90
52034;DHT22;38045;52.988;6.536;2023-06-10T04:56:23;15.60;99.90
52034;DHT22;38045;52.988;6.536;2023-06-10T04:58:49;15.60;99.90
52034;DHT22;38045;52.988;6.536;2023-06-10T05:01:15;15.60;99.90
52034;DHT22;38045;52.988;6.536;2023-06-10T05:03:40;15.70;99.90
52034;DHT22;38045;52.988;6.536;2023-06-10T05:06:06;15.70;99.90
52034;DHT22;38045;52.988;6.536;2023-06-10T05:08:32;15.70;99.90
52034;DHT22;38045;52.988;6.536;2023-06-10T05:10:57;15.60;99.90
52034;DHT22;38045;52.988;6.536;2023-06-10T05:13:23;15.70;99.90
52034;DHT22;38045;52.988;6.536;2023-06-10T05:15:49;15.70;99.90
52034;DHT22;38045;52.988;6.536;2023-06-10T05:18:14;15.70;99.90
52034;DHT22;38045;52.988;6.536;2023-06-10T05:20:40;15.80;99.90
52034;DHT22;38045;52.988;6.536;2023-06-10T05:23:06;15.90;99.90
52034;DHT22;38045;52.988;6.536;2023-06-10T05:25:32;15.90;99.90
52034;DHT22;38045;52.988;6.536;2023-06-10T05:27:58;15.90;99.90
52034;DHT22;38045;52.988;6.536;2023-06-10T05:30:24;16.00;99.90
52034;DHT22;38045;52.988;6.536;2023-06-10T05:32:51;16.00;99.90
52034;DHT22;38045;52.988;6.536;2023-06-10T05:35:17;16.10;99.90
52034;DHT22;38045;52.988;6.536;2023-06-10T05:37:43;16.20;99.90
52034;DHT22;38045;52.988;6.536;2023-06-10T05:40:09;16.20;99.90
52034;DHT22;38045;52.988;6.536;2023-06-10T05:42:35;16.30;99.90
52034;DHT22;38045;52.988;6.536;2023-06-10T05:45:01;16.40;99.90
52034;DHT22;38045;52.988;6.536;2023-06-10T05:47:27;16.40;99.90
52034;DHT22;38045;52.988;6.536;2023-06-10T05:49:53;16.40;99.90
52034;DHT22;38045;52.988;6.536;2023-06-10T05:52:19;16.40;99.90
52034;DHT22;38045;52.988;6.536;2023-06-10T05:54:44;16.40;99.90
52034;DHT22;38045;52.988;6.536;2023-06-10T05:57:10;16.40;99.90
52034;DHT22;38045;52.988;6.536;2023-06-10T05:59:36;16.40;99.90
52034;DHT22;38045;52.988;6.536;2023-06-10T06:02:01;16.40;99.90
52034;DHT22;38045;52.988;6.536;2023-06-10T06:04:27;16.40;99.90
52034;DHT22;38045;52.988;6.536;2023-06-10T06:06:53;16.60;99.90
52034;DHT22;38045;52.988;6.536;2023-06-10T06:09:18;16.70;99.90
52034;DHT22;38045;52.988;6.536;2023-06-10T06:11:44;16.80;99.90
52034;DHT22;38045;52.988;6.536;2023-06-10T06:14:10;16.90;99.90
52034;DHT22;38045;52.988;6.536;2023-06-10T06:16:35;17.00;99.90
52034;DHT22;38045;52.988;6.536;2023-06-10T06:19:01;17.10;99.90
52034;DHT22;38045;52.988;6.536;2023-06-10T06:21:26;17.20;99.90
52034;DHT22;38045;52.988;6.536;2023-06-10T06:23:52;17.20;99.90
52034;DHT22;38045;52.988;6.536;2023-06-10T06:26:18;17.30;99.90
52034;DHT22;38045;52.988;6.536;2023-06-10T06:28:43;17.40;99.90
52034;DHT22;38045;52.988;6.536;2023-06-10T06:31:09;17.40;99.90
52034;DHT22;38045;52.988;6.536;2023-06-10T06:33:35;17.50;99.90
52034;DHT22;38045;52.988;6.536;2023-06-10T06:36:00;17.60;99.90
52034;DHT22;38045;52.988;6.536;2023-06-10T06:38:26;17.60;99.90
52034;DHT22;38045;52.988;6.536;2023-06-10T06:40:52;17.70;99.90
52034;DHT22;38045;52.988;6.536;2023-06-10T06:43:17;17.80;99.90
52034;DHT22;38045;52.988;6.536;2023-06-10T06:45:44;17.80;99.90
52034;DHT22;38045;52.988;6.536;2023-06-10T06:48:11;17.90;99.90
52034;DHT22;38045;52.988;6.536;2023-06-10T06:50:37;17.90;99.90
52034;DHT22;38045;52.988;6.536;2023-06-10T06:53:04;17.90;99.90
52034;DHT22;38045;52.988;6.536;2023-06-10T06:55:29;17.90;99.90
52034;DHT22;38045;52.988;6.536;2023-06-10T06:57:55;18.00;99.90
52034;DHT22;38045;52.988;6.536;2023-06-10T07:00:21;18.10;99.90
52034;DHT22;38045;52.988;6.536;2023-06-10T07:02:47;18.30;99.90
52034;DHT22;38045;52.988;6.536;2023-06-10T07:05:13;18.30;99.90
52034;DHT22;38045;52.988;6.536;2023-06-10T07:07:38;18.40;99.90
52034;DHT22;38045;52.988;6.536;2023-06-10T07:10:04;18.50;99.90
52034;DHT22;38045;52.988;6.536;2023-06-10T07:12:30;18.50;99.90
52034;DHT22;38045;52.988;6.536;2023-06-10T07:14:56;18.60;99.90
52034;DHT22;38045;52.988;6.536;2023-06-10T07:17:21;18.60;99.90
52034;DHT22;38045;52.988;6.536;2023-06-10T07:19:47;18.70;99.90
52034;DHT22;38045;52.988;6.536;2023-06-10T07:22:13;18.80;99.90
52034;DHT22;38045;52.988;6.536;2023-06-10T07:24:39;19.00;99.90
52034;DHT22;38045;52.988;6.536;2023-06-10T07:27:05;19.00;99.90
52034;DHT22;38045;52.988;6.536;2023-06-10T07:29:31;19.10;99.90
52034;DHT22;38045;52.988;6.536;2023-06-10T07:31:56;19.20;99.90
52034;DHT22;38045;52.988;6.536;2023-06-10T07:34:22;19.30;99.90
52034;DHT22;38045;52.988;6.536;2023-06-10T07:36:47;19.50;99.90
52034;DHT22;38045;52.988;6.536;2023-06-10T07:39:13;19.60;99.90
52034;DHT22;38045;52.988;6.536;2023-06-10T07:41:39;19.60;99.90
52034;DHT22;38045;52.988;6.536;2023-06-10T07:44:04;19.80;99.90
52034;DHT22;38045;52.988;6.536;2023-06-10T07:46:30;19.80;99.90
52034;DHT22;38045;52.988;6.536;2023-06-10T07:48:56;20.00;99.90
52034;DHT22;38045;52.988;6.536;2023-06-10T07:51:21;20.00;99.90
52034;DHT22;38045;52.988;6.536;2023-06-10T07:53:47;20.10;99.90
52034;DHT22;38045;52.988;6.536;2023-06-10T07:56:13;20.10;99.90
52034;DHT22;38045;52.988;6.536;2023-06-10T07:58:38;20.20;99.90
52034;DHT22;38045;52.988;6.536;2023-06-10T08:01:04;20.30;99.90
52034;DHT22;38045;52.988;6.536;2023-06-10T08:03:30;20.30;99.90
52034;DHT22;38045;52.988;6.536;2023-06-10T08:05:55;20.50;99.90
52034;DHT22;38045;52.988;6.536;2023-06-10T08:08:21;20.50;99.90
52034;DHT22;38045;52.988;6.536;2023-06-10T08:10:47;20.60;99.90
52034;DHT22;38045;52.988;6.536;2023-06-10T08:13:14;20.70;99.90
52034;DHT22;38045;52.988;6.536;2023-06-10T08:15:40;20.80;99.90
52034;DHT22;38045;52.988;6.536;2023-06-10T08:18:06;21.00;99.90
52034;DHT22;38045;52.988;6.536;2023-06-10T08:20:31;21.00;99.90
52034;DHT22;38045;52.988;6.536;2023-06-10T08:22:57;21.20;99.90
52034;DHT22;38045;52.988;6.536;2023-06-10T08:25:23;21.40;99.90
52034;DHT22;38045;52.988;6.536;2023-06-10T08:27:48;21.50;99.90
52034;DHT22;38045;52.988;6.536;2023-06-10T08:30:16;21.60;99.90
52034;DHT22;38045;52.988;6.536;2023-06-10T08:32:41;21.60;99.90
52034;DHT22;38045;52.988;6.536;2023-06-10T08:35:07;21.80;99.90
52034;DHT22;38045;52.988;6.536;2023-06-10T08:37:33;21.80;99.90
52034;DHT22;38045;52.988;6.536;2023-06-10T08:39:59;21.80;99.90
52034;DHT22;38045;52.988;6.536;2023-06-10T08:43:00;21.80;99.90
52034;DHT22;38045;52.988;6.536;2023-06-10T08:45:24;21.90;99.90
52034;DHT22;38045;52.988;6.536;2023-06-10T08:47:54;22.00;99.90
52034;DHT22;38045;52.988;6.536;2023-06-10T08:50:23;22.00;99.90
52034;DHT22;38045;52.988;6.536;2023-06-10T08:52:50;22.20;99.90
52034;DHT22;38045;52.988;6.536;2023-06-10T08:55:26;22.10;99.90
52034;DHT22;38045;52.988;6.536;2023-06-10T08:57:53;22.20;99.90
52034;DHT22;38045;52.988;6.536;2023-06-10T09:00:19;22.30;99.90
52034;DHT22;38045;52.988;6.536;2023-06-10T09:02:45;22.40;99.90
52034;DHT22;38045;52.988;6.536;2023-06-10T09:05:12;22.50;99.90
52034;DHT22;38045;52.988;6.536;2023-06-10T09:07:39;22.70;99.90
52034;DHT22;38045;52.988;6.536;2023-06-10T09:10:05;22.80;99.90
52034;DHT22;38045;52.988;6.536;2023-06-10T09:12:33;23.00;99.90
52034;DHT22;38045;52.988;6.536;2023-06-10T09:15:00;23.00;99.60
52034;DHT22;38045;52.988;6.536;2023-06-10T09:17:27;23.00;99.90
52034;DHT22;38045;52.988;6.536;2023-06-10T09:19:53;23.10;99.90
52034;DHT22;38045;52.988;6.536;2023-06-10T09:22:24;23.30;99.90
52034;DHT22;38045;52.988;6.536;2023-06-10T09:25:01;23.30;99.90
52034;DHT22;38045;52.988;6.536;2023-06-10T09:27:30;23.30;99.90
52034;DHT22;38045;52.988;6.536;2023-06-10T09:29:56;23.30;99.90
52034;DHT22;38045;52.988;6.536;2023-06-10T09:32:23;23.40;99.90
52034;DHT22;38045;52.988;6.536;2023-06-10T09:34:49;23.50;99.90
52034;DHT22;38045;52.988;6.536;2023-06-10T09:37:25;23.70;99.70
52034;DHT22;38045;52.988;6.536;2023-06-10T09:40:04;23.90;99.90
52034;DHT22;38045;52.988;6.536;2023-06-10T09:42:33;24.00;99.90
52034;DHT22;38045;52.988;6.536;2023-06-10T09:45:00;24.00;99.90
52034;DHT22;38045;52.988;6.536;2023-06-10T09:47:26;24.00;99.90
52034;DHT22;38045;52.988;6.536;2023-06-10T09:49:52;24.00;99.90
52034;DHT22;38045;52.988;6.536;2023-06-10T09:52:27;24.10;99.90
52034;DHT22;38045;52.988;6.536;2023-06-10T09:54:55;24.10;99.70
52034;DHT22;38045;52.988;6.536;2023-06-10T09:57:25;24.10;99.90
52034;DHT22;38045;52.988;6.536;2023-06-10T09:59:54;24.20;99.80
52034;DHT22;38045;52.988;6.536;2023-06-10T10:02:20;24.20;99.70
52034;DHT22;38045;52.988;6.536;2023-06-10T10:04:45;24.20;99.10
52034;DHT22;38045;52.988;6.536;2023-06-10T10:07:11;24.30;99.60
52034;DHT22;38045;52.988;6.536;2023-06-10T10:09:38;24.30;99.20
52034;DHT22;38045;52.988;6.536;2023-06-10T10:12:12;24.30;98.20
52034;DHT22;38045;52.988;6.536;2023-06-10T10:14:39;24.40;99.10
52034;DHT22;38045;52.988;6.536;2023-06-10T10:17:10;24.60;98.60
52034;DHT22;38045;52.988;6.536;2023-06-10T10:19:45;24.60;98.20
52034;DHT22;38045;52.988;6.536;2023-06-10T10:22:18;24.60;97.20
52034;DHT22;38045;52.988;6.536;2023-06-10T10:24:55;24.60;96.80
52034;DHT22;38045;52.988;6.536;2023-06-10T10:27:28;24.60;96.80
52034;DHT22;38045;52.988;6.536;2023-06-10T10:29:58;24.80;97.30
52034;DHT22;38045;52.988;6.536;2023-06-10T10:33:06;24.90;97.10
52034;DHT22;38045;52.988;6.536;2023-06-10T10:35:36;25.00;95.20
52034;DHT22;38045;52.988;6.536;2023-06-10T10:38:03;25.20;97.00
52034;DHT22;38045;52.988;6.536;2023-06-10T10:40:30;25.30;95.60
52034;DHT22;38045;52.988;6.536;2023-06-10T10:42:59;25.40;96.20
52034;DHT22;38045;52.988;6.536;2023-06-10T10:45:27;25.40;95.70
52034;DHT22;38045;52.988;6.536;2023-06-10T10:47:53;25.60;96.10
52034;DHT22;38045;52.988;6.536;2023-06-10T10:50:21;25.70;95.10
52034;DHT22;38045;52.988;6.536;2023-06-10T10:52:59;25.70;95.20
52034;DHT22;38045;52.988;6.536;2023-06-10T10:55:26;25.70;93.10
52034;DHT22;38045;52.988;6.536;2023-06-10T10:57:59;25.80;94.70
52034;DHT22;38045;52.988;6.536;2023-06-10T11:03:07;25.90;93.70
52034;DHT22;38045;52.988;6.536;2023-06-10T11:05:41;26.10;94.00
52034;DHT22;38045;52.988;6.536;2023-06-10T11:08:09;26.20;93.60
52034;DHT22;38045;52.988;6.536;2023-06-10T11:10:37;26.30;92.50
52034;DHT22;38045;52.988;6.536;2023-06-10T11:13:13;26.40;93.20
52034;DHT22;38045;52.988;6.536;2023-06-10T11:15:43;26.50;92.00
52034;DHT22;38045;52.988;6.536;2023-06-10T11:18:14;26.40;91.30
52034;DHT22;38045;52.988;6.536;2023-06-10T11:23:32;26.70;92.00
52034;DHT22;38045;52.988;6.536;2023-06-10T11:31:22;27.10;90.70
52034;DHT22;38045;52.988;6.536;2023-06-10T11:33:48;27.20;91.40
52034;DHT22;38045;52.988;6.536;2023-06-10T11:36:17;27.30;89.70
52034;DHT22;38045;52.988;6.536;2023-06-10T11:38:43;27.30;88.00
52034;DHT22;38045;52.988;6.536;2023-06-10T11:41:10;27.40;88.70
52034;DHT22;38045;52.988;6.536;2023-06-10T11:43:37;27.50;90.10
52034;DHT22;38045;52.988;6.536;2023-06-10T11:46:06;27.60;90.20
52034;DHT22;38045;52.988;6.536;2023-06-10T11:48:33;27.70;90.70
52034;DHT22;38045;52.988;6.536;2023-06-10T11:50:59;27.70;89.80
52034;DHT22;38045;52.988;6.536;2023-06-10T11:53:25;27.70;90.20
52034;DHT22;38045;52.988;6.536;2023-06-10T11:55:51;27.70;90.30
52034;DHT22;38045;52.988;6.536;2023-06-10T11:58:20;27.70;89.10
52034;DHT22;38045;52.988;6.536;2023-06-10T12:00:50;27.70;89.10
52034;DHT22;38045;52.988;6.536;2023-06-10T12:03:17;27.60;88.00
52034;DHT22;38045;52.988;6.536;2023-06-10T12:08:20;27.50;87.80
52034;DHT22;38045;52.988;6.536;2023-06-10T12:10:46;27.40;86.70
52034;DHT22;38045;52.988;6.536;2023-06-10T12:13:11;27.40;85.60
52034;DHT22;38045;52.988;6.536;2023-06-10T12:15:37;27.50;86.40
52034;DHT22;38045;52.988;6.536;2023-06-10T12:18:03;27.60;87.00
52034;DHT22;38045;52.988;6.536;2023-06-10T12:20:31;27.60;86.80
52034;DHT22;38045;52.988;6.536;2023-06-10T12:23:00;27.70;85.40
52034;DHT22;38045;52.988;6.536;2023-06-10T12:25:33;27.70;86.40
52034;DHT22;38045;52.988;6.536;2023-06-10T12:27:59;27.80;86.20
52034;DHT22;38045;52.988;6.536;2023-06-10T12:30:26;27.90;86.30
52034;DHT22;38045;52.988;6.536;2023-06-10T12:32:53;28.00;86.00
52034;DHT22;38045;52.988;6.536;2023-06-10T12:35:20;28.20;86.60
52034;DHT22;38045;52.988;6.536;2023-06-10T12:40:39;28.40;85.90
52034;DHT22;38045;52.988;6.536;2023-06-10T12:43:07;28.40;85.90
52034;DHT22;38045;52.988;6.536;2023-06-10T12:45:37;28.40;86.60
52034;DHT22;38045;52.988;6.536;2023-06-10T12:48:24;28.50;86.00
52034;DHT22;38045;52.988;6.536;2023-06-10T12:50:54;28.50;85.00
52034;DHT22;38045;52.988;6.536;2023-06-10T12:53:20;28.40;85.70
52034;DHT22;38045;52.988;6.536;2023-06-10T12:55:46;28.30;85.30
52034;DHT22;38045;52.988;6.536;2023-06-10T12:58:13;28.20;86.30
52034;DHT22;38045;52.988;6.536;2023-06-10T13:00:39;28.20;86.30
52034;DHT22;38045;52.988;6.536;2023-06-10T13:03:06;28.30;86.30
52034;DHT22;38045;52.988;6.536;2023-06-10T13:05:32;28.40;85.30
52034;DHT22;38045;52.988;6.536;2023-06-10T13:07:58;28.50;82.00
52034;DHT22;38045;52.988;6.536;2023-06-10T13:10:24;28.30;81.70
52034;DHT22;38045;52.988;6.536;2023-06-10T13:12:50;28.20;80.80
52034;DHT22;38045;52.988;6.536;2023-06-10T13:15:16;28.20;82.20
52034;DHT22;38045;52.988;6.536;2023-06-10T13:17:46;28.30;80.60
52034;DHT22;38045;52.988;6.536;2023-06-10T13:20:15;28.30;81.40
52034;DHT22;38045;52.988;6.536;2023-06-10T13:22:43;28.30;82.20
52034;DHT22;38045;52.988;6.536;2023-06-10T13:25:09;28.20;83.30
52034;DHT22;38045;52.988;6.536;2023-06-10T13:27:38;28.20;83.50
52034;DHT22;38045;52.988;6.536;2023-06-10T13:30:05;28.30;82.80
52034;DHT22;38045;52.988;6.536;2023-06-10T13:32:31;28.30;81.90
52034;DHT22;38045;52.988;6.536;2023-06-10T13:34:57;28.30;80.40
52034;DHT22;38045;52.988;6.536;2023-06-10T13:37:22;28.40;81.30
52034;DHT22;38045;52.988;6.536;2023-06-10T13:39:48;28.30;79.40
52034;DHT22;38045;52.988;6.536;2023-06-10T13:42:17;28.40;82.10
52034;DHT22;38045;52.988;6.536;2023-06-10T13:44:42;28.40;80.70
52034;DHT22;38045;52.988;6.536;2023-06-10T13:47:08;28.40;81.80
52034;DHT22;38045;52.988;6.536;2023-06-10T13:49:33;28.30;82.50
52034;DHT22;38045;52.988;6.536;2023-06-10T13:51:59;28.20;83.30
52034;DHT22;38045;52.988;6.536;2023-06-10T13:54:24;28.20;84.00
52034;DHT22;38045;52.988;6.536;2023-06-10T13:56:50;28.30;83.90
52034;DHT22;38045;52.988;6.536;2023-06-10T13:59:16;28.20;82.00
52034;DHT22;38045;52.988;6.536;2023-06-10T14:01:41;28.30;81.40
52034;DHT22;38045;52.988;6.536;2023-06-10T14:04:07;28.30;80.50
52034;DHT22;38045;52.988;6.536;2023-06-10T14:06:33;28.20;81.80
52034;DHT22;38045;52.988;6.536;2023-06-10T14:09:03;28.20;82.00
52034;DHT22;38045;52.988;6.536;2023-06-10T14:11:28;28.20;81.40
52034;DHT22;38045;52.988;6.536;2023-06-10T14:13:54;28.20;81.70
52034;DHT22;38045;52.988;6.536;2023-06-10T14:16:23;28.20;82.00
52034;DHT22;38045;52.988;6.536;2023-06-10T14:18:49;28.30;81.80
52034;DHT22;38045;52.988;6.536;2023-06-10T14:21:16;28.30;81.40
52034;DHT22;38045;52.988;6.536;2023-06-10T14:23:42;28.40;81.70
52034;DHT22;38045;52.988;6.536;2023-06-10T14:26:09;28.50;81.00
52034;DHT22;38045;52.988;6.536;2023-06-10T14:28:35;28.50;81.00
52034;DHT22;38045;52.988;6.536;2023-06-10T14:31:01;28.50;79.80
52034;DHT22;38045;52.988;6.536;2023-06-10T14:33:26;28.50;78.00
52034;DHT22;38045;52.988;6.536;2023-06-10T14:35:52;28.40;78.50
52034;DHT22;38045;52.988;6.536;2023-06-10T14:38:18;28.30;78.80
52034;DHT22;38045;52.988;6.536;2023-06-10T14:40:44;28.40;79.00
52034;DHT22;38045;52.988;6.536;2023-06-10T14:43:09;28.50;79.60
52034;DHT22;38045;52.988;6.536;2023-06-10T14:45:39;28.50;78.80
52034;DHT22;38045;52.988;6.536;2023-06-10T14:48:06;28.50;79.10
52034;DHT22;38045;52.988;6.536;2023-06-10T14:50:32;28.40;79.60
52034;DHT22;38045;52.988;6.536;2023-06-10T14:52:58;28.30;79.70
52034;DHT22;38045;52.988;6.536;2023-06-10T14:55:24;28.10;79.60
52034;DHT22;38045;52.988;6.536;2023-06-10T14:57:50;28.10;79.80
52034;DHT22;38045;52.988;6.536;2023-06-10T15:00:15;28.30;80.20
52034;DHT22;38045;52.988;6.536;2023-06-10T15:02:45;28.30;80.40
52034;DHT22;38045;52.988;6.536;2023-06-10T15:05:13;28.30;79.80
52034;DHT22;38045;52.988;6.536;2023-06-10T15:07:40;28.30;80.30
52034;DHT22;38045;52.988;6.536;2023-06-10T15:10:06;28.30;79.30
52034;DHT22;38045;52.988;6.536;2023-06-10T15:12:32;28.30;79.90
52034;DHT22;38045;52.988;6.536;2023-06-10T15:14:58;28.40;79.30
52034;DHT22;38045;52.988;6.536;2023-06-10T15:17:24;28.30;79.20
52034;DHT22;38045;52.988;6.536;2023-06-10T15:19:50;28.30;79.40
52034;DHT22;38045;52.988;6.536;2023-06-10T15:22:15;28.40;79.20
52034;DHT22;38045;52.988;6.536;2023-06-10T15:24:41;28.40;78.40
52034;DHT22;38045;52.988;6.536;2023-06-10T15:27:06;28.30;78.80
52034;DHT22;38045;52.988;6.536;2023-06-10T15:29:32;28.20;78.70
52034;DHT22;38045;52.988;6.536;2023-06-10T15:31:57;28.20;79.70
52034;DHT22;38045;52.988;6.536;2023-06-10T15:34:23;28.30;79.70
52034;DHT22;38045;52.988;6.536;2023-06-10T15:36:49;28.30;79.70
52034;DHT22;38045;52.988;6.536;2023-06-10T15:39:14;28.40;79.20
52034;DHT22;38045;52.988;6.536;2023-06-10T15:41:40;28.40;78.10
52034;DHT22;38045;52.988;6.536;2023-06-10T15:44:06;28.40;78.10
52034;DHT22;38045;52.988;6.536;2023-06-10T15:46:32;28.40;78.00
52034;DHT22;38045;52.988;6.536;2023-06-10T15:48:59;28.30;78.30